Time;durP1;ratioP1;P1;durP2;ratioP2;P2;SDS_P1;SDS_P2;PMS_P1;PMS_P2;Temp;Humidity;BMP_temperature;BMP_pressure;BME280_temperature;BME280_humidity;BME280_pressure;Samples;Min_cycle;Max_cycle;Signal;HPM_P1;HPM_P2
2023/04/19 00:00:40;;;;;;;9.27;5.55;;;7.80;99.90;;;;;;5093257;27;20079;-45
2023/04/19 00:03:07;;;;;;;8.02;5.60;;;7.80;99.90;;;;;;5093391;27;20052;-43
2023/04/19 00:05:32;;;;;;;8.75;5.85;;;7.60;99.90;;;;;;5073501;28;20047;-45
2023/04/19 00:07:58;;;;;;;10.27;5.97;;;7.70;99.90;;;;;;5075292;28;20047;-47
2023/04/19 00:10:25;;;;;;;8.65;5.93;;;9.00;99.90;;;;;;5091945;27;20404;-46
2023/04/19 00:12:51;;;;;;;10.60;6.60;;;7.70;99.90;;;;;;5093134;28;20134;-45
2023/04/19 00:15:17;;;;;;;10.85;6.03;;;9.20;99.90;;;;;;5095525;27;20804;-45
2023/04/19 00:17:43;;;;;;;10.75;6.88;;;7.60;99.90;;;;;;5094214;27;20043;-48
2023/04/19 00:20:10;;;;;;;9.07;6.22;;;7.50;99.90;;;;;;5076118;27;20491;-46
2023/04/19 00:22:36;;;;;;;9.65;7.13;;;7.50;99.90;;;;;;5093370;27;20083;-46
2023/04/19 00:25:02;;;;;;;10.20;5.65;;;9.50;99.90;;;;;;5093785;27;21260;-44
2023/04/19 00:27:27;;;;;;;9.13;5.75;;;7.40;99.90;;;;;;5074572;27;20032;-47
2023/04/19 00:29:53;;;;;;;9.65;6.30;;;7.30;99.90;;;;;;5093489;28;20051;-48
2023/04/19 00:32:19;;;;;;;8.60;5.07;;;7.50;99.90;;;;;;5093856;27;20047;-44
2023/04/19 00:34:45;;;;;;;9.77;6.15;;;7.80;99.90;;;;;;5074251;28;20043;-45
2023/04/19 00:37:10;;;;;;;9.63;6.30;;;7.10;99.90;;;;;;5094793;28;21178;-49
2023/04/19 00:39:36;;;;;;;10.02;6.43;;;8.70;99.90;;;;;;5095079;28;20062;-45
2023/04/19 00:42:02;;;;;;;11.27;6.80;;;7.40;99.90;;;;;;5094065;28;20052;-45
2023/04/19 00:44:28;;;;;;;11.45;6.63;;;7.30;99.90;;;;;;5094436;28;20047;-45
2023/04/19 00:46:55;;;;;;;11.10;7.10;;;8.50;99.90;;;;;;5094249;27;20048;-47
2023/04/19 00:49:22;;;;;;;10.15;6.57;;;7.30;99.90;;;;;;5074715;28;20098;-47
2023/04/19 00:51:49;;;;;;;10.70;6.45;;;8.80;99.90;;;;;;5075473;28;20050;-45
2023/04/19 00:54:16;;;;;;;12.23;6.60;;;7.40;99.90;;;;;;5073627;28;20408;-44
2023/04/19 00:56:43;;;;;;;11.18;6.40;;;7.40;99.90;;;;;;5093031;28;20155;-43
2023/04/19 00:59:09;;;;;;;10.77;6.95;;;7.30;99.90;;;;;;5092718;28;20059;-44
2023/04/19 01:01:36;;;;;;;11.77;7.10;;;7.70;99.90;;;;;;5093869;28;20089;-45
2023/04/19 01:04:03;;;;;;;9.13;6.90;;;8.20;99.90;;;;;;5092372;28;20275;-44
2023/04/19 01:06:29;;;;;;;10.95;6.90;;;7.50;99.90;;;;;;5092756;28;20040;-44
2023/04/19 01:08:55;;;;;;;12.73;6.82;;;7.90;99.90;;;;;;5092660;28;20043;-44
2023/04/19 01:11:25;;;;;;;11.20;8.02;;;7.40;99.90;;;;;;5074519;28;21437;-44
2023/04/19 01:13:51;;;;;;;11.25;6.10;;;7.80;99.90;;;;;;5092723;28;20044;-44
2023/04/19 01:16:17;;;;;;;10.63;7.57;;;7.40;99.90;;;;;;5093989;28;20054;-44
2023/04/19 01:18:43;;;;;;;9.52;7.10;;;7.50;99.90;;;;;;5091702;28;20131;-46
2023/04/19 01:21:10;;;;;;;11.82;7.30;;;7.40;99.90;;;;;;5093025;28;20078;-44
2023/04/19 01:23:37;;;;;;;12.43;7.70;;;8.00;99.90;;;;;;5093221;28;20130;-48
2023/04/19 01:26:04;;;;;;;12.18;8.38;;;7.40;99.90;;;;;;5093084;28;20131;-47
2023/04/19 01:28:30;;;;;;;11.90;7.68;;;7.40;99.90;;;;;;5091870;28;20126;-45
2023/04/19 01:30:56;;;;;;;12.05;8.13;;;7.50;99.90;;;;;;5092859;28;20530;-48
2023/04/19 01:33:22;;;;;;;13.88;8.07;;;7.50;99.90;;;;;;5092060;28;20039;-47
2023/04/19 01:35:48;;;;;;;12.43;7.47;;;8.00;99.90;;;;;;5093530;28;20053;-47
2023/04/19 01:38:15;;;;;;;15.40;8.25;;;7.50;99.90;;;;;;5096029;27;20334;-46
2023/04/19 01:40:41;;;;;;;13.25;7.82;;;7.20;99.90;;;;;;5097171;27;20049;-52
2023/04/19 01:43:07;;;;;;;13.02;8.50;;;7.30;99.90;;;;;;5097402;27;21075;-46
2023/04/19 01:45:34;;;;;;;14.45;8.55;;;7.30;99.90;;;;;;5098920;27;20069;-44
2023/04/19 01:48:01;;;;;;;13.52;8.48;;;;;;;;;;5079633;28;20271;-48
2023/04/19 01:50:27;;;;;;;11.90;7.60;;;7.30;99.90;;;;;;5096152;27;20051;-48
2023/04/19 01:52:53;;;;;;;20.98;8.98;;;7.50;99.90;;;;;;5096957;27;20124;-47
2023/04/19 01:55:19;;;;;;;13.25;7.97;;;7.20;99.90;;;;;;5097428;27;20039;-48
2023/04/19 01:57:45;;;;;;;12.52;9.13;;;7.30;99.90;;;;;;5095717;27;20067;-48
2023/04/19 02:00:11;;;;;;;13.98;9.20;;;7.30;99.90;;;;;;5096633;27;20496;-45
2023/04/19 02:02:37;;;;;;;10.15;6.38;;;7.30;99.90;;;;;;5097195;27;20401;-47
2023/04/19 02:05:05;;;;;;;14.75;8.23;;;7.20;99.90;;;;;;5095386;27;20067;-47
2023/04/19 02:07:30;;;;;;;17.00;10.02;;;7.30;99.90;;;;;;5097200;27;20536;-48
2023/04/19 02:09:58;;;;;;;17.92;10.20;;;7.20;99.90;;;;;;5079019;28;20140;-49
2023/04/19 02:12:27;;;;;;;14.13;9.02;;;7.30;99.90;;;;;;5096078;27;20047;-49
2023/04/19 02:14:56;;;;;;;13.35;9.50;;;7.20;99.90;;;;;;5097406;27;20045;-47
2023/04/19 02:17:25;;;;;;;12.82;8.35;;;6.90;99.90;;;;;;5095322;27;21166;-49
2023/04/19 02:19:51;;;;;;;14.07;8.55;;;7.00;99.90;;;;;;5095254;27;20562;-46
2023/04/19 02:22:18;;;;;;;11.02;6.95;;;7.10;99.90;;;;;;5094387;27;20048;-46
2023/04/19 02:24:44;;;;;;;15.63;9.00;;;7.00;99.90;;;;;;5095160;27;20617;-44
2023/04/19 02:27:10;;;;;;;13.35;8.25;;;6.90;99.90;;;;;;5097221;27;20052;-46
2023/04/19 02:29:37;;;;;;;17.33;9.02;;;6.90;99.90;;;;;;5095907;27;20047;-45
2023/04/19 02:32:04;;;;;;;14.68;8.48;;;6.80;99.90;;;;;;5094473;27;20135;-48
2023/04/19 02:34:31;;;;;;;13.48;8.95;;;6.80;99.90;;;;;;5093490;27;20058;-49
2023/04/19 02:36:57;;;;;;;13.60;7.57;;;6.80;99.90;;;;;;5096062;27;20042;-45
2023/04/19 02:39:23;;;;;;;12.23;7.68;;;6.90;99.90;;;;;;5096391;27;20102;-44
2023/04/19 02:41:49;;;;;;;10.98;6.10;;;6.90;99.90;;;;;;5095170;27;20057;-47
2023/04/19 02:44:15;;;;;;;16.02;7.07;;;6.80;99.90;;;;;;5077147;28;20044;-45
2023/04/19 02:46:40;;;;;;;14.45;6.68;;;6.80;99.90;;;;;;5096123;27;20051;-45
2023/04/19 02:49:06;;;;;;;13.02;7.32;;;6.90;99.90;;;;;;5095268;27;20096;-49
2023/04/19 02:51:32;;;;;;;13.10;7.93;;;6.80;99.90;;;;;;5094537;27;20047;-44
2023/04/19 02:53:57;;;;;;;11.00;6.25;;;6.60;99.90;;;;;;5095403;27;20152;-45
2023/04/19 02:56:23;;;;;;;14.10;6.28;;;6.70;99.90;;;;;;5077990;28;20051;-44
2023/04/19 02:58:51;;;;;;;10.45;6.93;;;6.70;99.90;;;;;;5095410;27;20079;-52
2023/04/19 03:01:17;;;;;;;8.85;5.88;;;6.70;99.90;;;;;;5094229;27;20054;-45
2023/04/19 03:03:43;;;;;;;11.00;6.05;;;6.60;99.90;;;;;;5076889;28;20047;-43
2023/04/19 03:06:09;;;;;;;9.05;5.50;;;6.60;99.90;;;;;;5095342;27;21329;-44
2023/04/19 03:08:35;;;;;;;11.57;6.50;;;6.50;99.90;;;;;;5078040;27;20048;-44
2023/04/19 03:11:00;;;;;;;11.75;6.43;;;6.60;99.90;;;;;;5096355;27;20035;-44
2023/04/19 03:13:26;;;;;;;12.88;5.40;;;6.70;99.90;;;;;;5095228;27;20502;-44
2023/04/19 03:15:52;;;;;;;10.80;5.63;;;6.40;99.90;;;;;;5097145;27;20435;-46
2023/04/19 03:18:18;;;;;;;12.48;6.13;;;6.60;99.90;;;;;;5094473;27;20578;-44
2023/04/19 03:20:43;;;;;;;10.70;6.40;;;6.50;99.90;;;;;;5094733;27;20678;-46
2023/04/19 03:23:09;;;;;;;9.75;5.93;;;6.40;99.90;;;;;;5095416;28;20042;-47
2023/04/19 03:25:35;;;;;;;21.35;7.65;;;6.40;99.90;;;;;;5096111;27;20098;-45
2023/04/19 03:28:01;;;;;;;10.07;5.78;;;6.20;99.90;;;;;;5096283;27;20043;-44
2023/04/19 03:30:27;;;;;;;10.80;5.53;;;6.20;99.90;;;;;;5095125;27;20040;-44
2023/04/19 03:32:53;;;;;;;11.48;6.10;;;6.10;99.90;;;;;;5095146;27;20115;-44
2023/04/19 03:35:20;;;;;;;10.43;6.50;;;6.00;99.90;;;;;;5076401;28;20040;-44
2023/04/19 03:37:45;;;;;;;9.23;5.40;;;6.00;99.90;;;;;;5094460;27;20096;-44
2023/04/19 03:40:11;;;;;;;9.43;6.38;;;6.00;99.90;;;;;;5094302;27;20043;-44
2023/04/19 03:42:37;;;;;;;9.50;5.95;;;6.10;99.90;;;;;;5094514;27;21003;-44
2023/04/19 03:45:03;;;;;;;9.77;5.68;;;;;;;;;;5077907;27;20039;-45
2023/04/19 03:47:29;;;;;;;9.48;4.68;;;6.00;99.90;;;;;;5094452;27;20151;-44
2023/04/19 03:49:56;;;;;;;11.93;5.78;;;;;;;;;;5093286;27;20104;-44
2023/04/19 03:52:22;;;;;;;9.00;5.75;;;6.00;99.90;;;;;;5093818;28;20093;-45
2023/04/19 03:54:47;;;;;;;10.57;5.53;;;5.80;99.90;;;;;;5094764;28;20128;-44
2023/04/19 03:57:16;;;;;;;9.90;5.28;;;5.70;99.90;;;;;;5093763;27;20585;-43
2023/04/19 03:59:42;;;;;;;10.95;4.97;;;;;;;;;;5092966;28;20054;-43
2023/04/19 04:02:08;;;;;;;9.63;5.63;;;5.90;99.90;;;;;;5094561;27;20526;-43
2023/04/19 04:04:34;;;;;;;12.30;5.95;;;;;;;;;;5095096;27;20049;-46
2023/04/19 04:07:00;;;;;;;9.48;4.55;;;5.80;99.90;;;;;;5095771;28;20032;-45
2023/04/19 04:09:26;;;;;;;8.25;5.40;;;;;;;;;;5093751;27;20040;-46
2023/04/19 04:11:52;;;;;;;11.07;5.43;;;5.80;99.90;;;;;;5093582;27;20385;-46
2023/04/19 04:14:18;;;;;;;11.90;5.35;;;;;;;;;;5094694;27;20055;-45
2023/04/19 04:16:44;;;;;;;9.13;4.65;;;;;;;;;;5095170;27;20123;-44
2023/04/19 04:19:11;;;;;;;9.48;5.78;;;5.80;99.90;;;;;;5094998;27;20526;-44
2023/04/19 04:21:37;;;;;;;9.55;4.82;;;;;;;;;;5095055;27;20047;-43
2023/04/19 04:24:02;;;;;;;9.70;5.10;;;6.00;99.90;;;;;;5095260;27;20117;-46
2023/04/19 04:26:32;;;;;;;8.90;4.82;;;;;;;;;;5093342;27;20039;-49
2023/04/19 04:29:00;;;;;;;11.63;4.95;;;5.90;99.90;;;;;;5095074;27;22581;-44
2023/04/19 04:31:27;;;;;;;9.60;5.75;;;5.80;99.90;;;;;;5094276;28;20074;-45
2023/04/19 04:33:54;;;;;;;7.93;3.70;;;6.00;99.90;;;;;;5094104;28;20085;-44
2023/04/19 04:36:20;;;;;;;6.65;4.10;;;;;;;;;;5094457;27;20446;-45
2023/04/19 04:38:47;;;;;;;7.95;4.50;;;;;;;;;;5093335;27;20446;-44
2023/04/19 04:41:13;;;;;;;7.68;4.35;;;;;;;;;;5076103;28;20107;-46
2023/04/19 04:43:40;;;;;;;11.80;4.72;;;;;;;;;;5093277;28;20043;-45
2023/04/19 04:46:06;;;;;;;8.20;4.85;;;;;;;;;;5095789;28;20035;-45
2023/04/19 04:48:32;;;;;;;11.05;5.50;;;;;;;;;;5093069;27;20126;-46
2023/04/19 04:50:58;;;;;;;9.13;4.72;;;;;;;;;;5093236;28;20052;-45
2023/04/19 04:53:27;;;;;;;9.20;4.75;;;5.90;99.90;;;;;;5091460;28;20047;-49
2023/04/19 04:55:55;;;;;;;8.27;4.05;;;5.90;99.90;;;;;;5092390;27;20035;-45
2023/04/19 04:58:21;;;;;;;7.72;4.00;;;;;;;;;;5093520;28;20057;-47
2023/04/19 05:00:47;;;;;;;14.10;4.40;;;6.00;99.90;;;;;;5091875;28;20083;-47
2023/04/19 05:03:14;;;;;;;8.85;4.15;;;;;;;;;;5092239;28;20112;-46
2023/04/19 05:05:40;;;;;;;8.70;4.43;;;;;;;;;;5092241;28;20041;-48
2023/04/19 05:08:06;;;;;;;10.32;4.20;;;;;;;;;;5094093;28;20056;-48
2023/04/19 05:10:32;;;;;;;7.82;4.60;;;6.10;99.90;;;;;;5056528;28;20040;-45
2023/04/19 05:12:59;;;;;;;8.27;4.18;;;6.20;99.90;;;;;;5076716;27;20526;-45
2023/04/19 05:15:25;;;;;;;12.55;4.32;;;6.20;99.90;;;;;;5097898;27;20127;-48
2023/04/19 05:17:51;;;;;;;7.05;3.90;;;;;;;;;;5097271;28;20038;-47
2023/04/19 05:20:17;;;;;;;8.10;4.25;;;;;;;;;;5096900;27;20132;-47
2023/04/19 05:22:43;;;;;;;7.10;3.42;;;6.60;99.90;;;;;;5096211;27;20039;-49
2023/04/19 05:25:09;;;;;;;6.75;4.20;;;6.60;99.90;;;;;;5095834;28;20063;-48
2023/04/19 05:27:35;;;;;;;8.25;4.28;;;6.60;99.90;;;;;;5097241;27;20052;-50
2023/04/19 05:30:02;;;;;;;7.38;4.10;;;6.80;99.90;;;;;;5095975;27;20339;-45
2023/04/19 05:32:28;;;;;;;6.35;3.67;;;7.00;99.90;;;;;;5096800;27;20134;-49
2023/04/19 05:34:54;;;;;;;7.93;3.58;;;7.20;99.90;;;;;;5095957;27;20051;-47
2023/04/19 05:37:19;;;;;;;9.75;3.72;;;9.00;99.90;;;;;;5096376;27;20048;-48
2023/04/19 05:39:45;;;;;;;6.75;3.47;;;7.70;99.90;;;;;;5094591;27;20527;-49
2023/04/19 05:42:11;;;;;;;6.10;3.50;;;8.30;99.90;;;;;;5094283;27;20101;-49
2023/04/19 05:44:37;;;;;;;9.23;3.65;;;8.90;99.90;;;;;;5095547;27;20086;-48
2023/04/19 05:47:02;;;;;;;8.07;3.30;;;8.90;99.90;;;;;;5095221;27;20036;-45
2023/04/19 05:49:28;;;;;;;6.88;3.40;;;9.50;99.90;;;;;;5095936;27;20070;-46
2023/04/19 05:51:54;;;;;;;7.22;3.85;;;9.60;99.90;;;;;;5094451;27;20074;-48
2023/04/19 05:54:20;;;;;;;7.07;3.63;;;10.40;99.90;;;;;;5096139;27;20039;-50
2023/04/19 05:56:45;;;;;;;6.55;3.35;;;10.80;99.90;;;;;;5095901;27;20100;-50
2023/04/19 05:59:12;;;;;;;7.75;3.40;;;10.70;99.90;;;;;;5094687;28;20064;-49
2023/04/19 06:01:38;;;;;;;6.88;3.15;;;10.80;99.90;;;;;;5061462;28;20039;-48
2023/04/19 06:04:04;;;;;;;5.55;3.08;;;11.10;99.90;;;;;;5093455;27;20039;-48
2023/04/19 06:06:30;;;;;;;9.48;3.30;;;11.50;99.90;;;;;;5095811;27;20035;-44
2023/04/19 06:08:56;;;;;;;7.75;3.22;;;10.40;99.90;;;;;;5094748;27;20108;-48
2023/04/19 06:11:22;;;;;;;6.47;3.30;;;12.00;99.90;;;;;;5094031;27;20031;-47
2023/04/19 06:13:49;;;;;;;9.82;4.03;;;12.40;99.90;;;;;;5094097;27;20687;-47
2023/04/19 06:16:15;;;;;;;6.25;3.10;;;13.00;99.90;;;;;;5095126;27;20456;-46
2023/04/19 06:18:42;;;;;;;8.90;3.30;;;13.50;99.90;;;;;;5093370;27;20043;-48
2023/04/19 06:21:07;;;;;;;7.97;2.88;;;13.30;99.90;;;;;;5093411;27;20445;-44
2023/04/19 06:23:33;;;;;;;6.82;2.92;;;13.30;99.90;;;;;;5093339;27;20054;-45
2023/04/19 06:25:59;;;;;;;7.38;2.63;;;15.60;99.90;;;;;;5094557;27;20035;-45
2023/04/19 06:28:25;;;;;;;8.02;2.88;;;13.70;99.90;;;;;;5093566;27;20055;-46
2023/04/19 06:30:51;;;;;;;7.68;3.45;;;14.50;99.90;;;;;;5075498;28;20453;-45
2023/04/19 06:33:16;;;;;;;5.35;2.90;;;15.20;99.90;;;;;;5094387;27;20044;-45
2023/04/19 06:35:42;;;;;;;5.70;2.70;;;15.60;99.90;;;;;;5094503;27;20048;-45
2023/04/19 06:38:08;;;;;;;5.45;2.35;;;15.50;99.90;;;;;;5093662;27;20035;-49
2023/04/19 06:40:34;;;;;;;6.93;2.78;;;15.40;99.90;;;;;;5094393;27;20071;-47
2023/04/19 06:42:59;;;;;;;8.00;2.65;;;15.50;99.90;;;;;;5075477;28;20071;-47
2023/04/19 06:45:25;;;;;;;4.70;2.67;;;15.60;99.90;;;;;;5093997;27;21106;-44
2023/04/19 06:47:51;;;;;;;6.72;2.95;;;15.40;99.90;;;;;;5095843;27;20070;-45
2023/04/19 06:50:17;;;;;;;7.07;3.35;;;15.40;99.90;;;;;;5075297;28;20043;-46
2023/04/19 06:52:42;;;;;;;6.75;2.80;;;16.10;99.90;;;;;;5093195;27;20039;-45
2023/04/19 06:55:08;;;;;;;6.75;2.45;;;16.30;99.90;;;;;;5074651;28;20396;-47
2023/04/19 06:57:34;;;;;;;5.90;2.58;;;16.60;99.90;;;;;;5092940;27;20043;-49
2023/04/19 07:00:00;;;;;;;5.97;2.05;;;17.00;99.90;;;;;;5071795;28;20066;-46
2023/04/19 07:02:26;;;;;;;6.15;2.53;;;17.40;99.90;;;;;;5073010;28;20040;-46
2023/04/19 07:04:51;;;;;;;4.53;2.13;;;17.50;99.90;;;;;;5072652;28;20036;-45
2023/04/19 07:07:17;;;;;;;7.70;2.03;;;17.70;99.90;;;;;;5071638;28;20044;-47
2023/04/19 07:09:43;;;;;;;4.90;2.08;;;17.60;99.90;;;;;;5073494;28;20063;-46
2023/04/19 07:12:09;;;;;;;6.05;2.20;;;18.20;99.90;;;;;;5074517;28;20052;-47
2023/04/19 07:14:35;;;;;;;5.22;2.13;;;18.60;99.90;;;;;;5074822;28;20851;-45
2023/04/19 07:17:02;;;;;;;4.90;2.10;;;18.50;99.90;;;;;;5074717;28;20036;-48
2023/04/19 07:19:28;;;;;;;3.85;1.80;;;18.70;99.90;;;;;;5074912;28;20044;-47
2023/04/19 07:21:54;;;;;;;5.15;2.10;;;19.10;98.80;;;;;;5073484;28;20063;-45
2023/04/19 07:24:20;;;;;;;5.80;1.60;;;19.10;99.10;;;;;;5073271;28;20036;-45
2023/04/19 07:26:45;;;;;;;3.30;1.50;;;19.20;98.10;;;;;;5072616;28;20040;-45
2023/04/19 07:29:11;;;;;;;4.28;1.73;;;19.80;98.00;;;;;;5074496;28;20153;-47
2023/04/19 07:31:37;;;;;;;5.05;2.15;;;17.90;98.20;;;;;;5054495;28;20044;-45
2023/04/19 07:34:03;;;;;;;5.65;1.50;;;17.30;99.10;;;;;;5073264;28;20043;-50
2023/04/19 07:36:29;;;;;;;4.65;1.60;;;17.00;98.40;;;;;;5073048;28;20924;-49
2023/04/19 07:38:55;;;;;;;4.65;1.83;;;16.20;99.10;;;;;;5072810;28;20089;-51
2023/04/19 07:41:20;;;;;;;5.82;1.67;;;15.60;99.50;;;;;;5071848;28;20044;-48
2023/04/19 07:43:46;;;;;;;7.72;2.03;;;15.70;99.90;;;;;;5072364;28;20891;-50
2023/04/19 07:46:15;;;;;;;4.57;1.55;;;15.70;99.90;;;;;;5072158;28;20306;-50
2023/04/19 07:48:40;;;;;;;6.43;1.73;;;15.70;99.70;;;;;;5073865;28;20056;-47
2023/04/19 07:51:13;;;;;;;4.22;1.40;;;15.60;99.90;;;;;;5071939;28;20101;-48
2023/04/19 07:53:43;;;;;;;3.90;1.55;;;15.50;99.20;;;;;;5072730;28;20079;-47
2023/04/19 07:56:10;;;;;;;4.38;1.70;;;15.20;99.60;;;;;;5072408;28;20036;-49
2023/04/19 07:58:36;;;;;;;4.35;2.20;;;14.80;99.90;;;;;;5077028;27;20063;-50
2023/04/19 08:01:03;;;;;;;5.75;1.98;;;14.80;99.90;;;;;;5093375;27;20052;-48
2023/04/19 08:03:33;;;;;;;4.68;1.80;;;14.80;99.90;;;;;;5093781;27;20040;-51
2023/04/19 08:06:04;;;;;;;3.78;1.80;;;14.70;99.90;;;;;;5092669;27;20073;-53
2023/04/19 08:08:30;;;;;;;2.78;1.30;;;14.40;99.90;;;;;;5092519;27;20044;-52
2023/04/19 08:10:56;;;;;;;4.38;1.70;;;14.20;99.90;;;;;;5092365;27;20373;-50
2023/04/19 08:13:22;;;;;;;3.60;1.65;;;13.80;99.90;;;;;;5057152;27;20088;-47
2023/04/19 08:15:48;;;;;;;3.28;1.60;;;13.80;99.90;;;;;;5092985;27;20458;-47
2023/04/19 08:18:14;;;;;;;3.65;1.75;;;13.60;99.90;;;;;;5093574;27;20050;-53
2023/04/19 08:20:41;;;;;;;7.50;1.75;;;13.50;99.90;;;;;;5091215;27;20189;-52
2023/04/19 08:23:07;;;;;;;3.70;1.55;;;13.70;99.90;;;;;;5092983;27;20088;-49
2023/04/19 08:25:34;;;;;;;5.03;1.90;;;14.30;99.90;;;;;;5092461;27;20048;-53
2023/04/19 08:28:00;;;;;;;4.10;1.50;;;14.30;99.90;;;;;;5094557;27;20217;-51
2023/04/19 08:30:26;;;;;;;3.83;2.03;;;14.40;99.90;;;;;;5074113;28;20100;-48
2023/04/19 08:32:52;;;;;;;4.90;1.65;;;14.30;99.90;;;;;;5093336;28;20048;-53
2023/04/19 08:35:17;;;;;;;5.85;1.92;;;14.70;99.90;;;;;;5093446;27;20155;-48
2023/04/19 08:37:43;;;;;;;2.80;1.50;;;14.00;99.90;;;;;;5092706;28;20131;-48
2023/04/19 08:40:10;;;;;;;2.70;1.40;;;13.60;99.90;;;;;;5093582;27;20044;-47
2023/04/19 08:42:36;;;;;;;5.20;1.70;;;13.20;99.90;;;;;;5092360;27;20163;-50
2023/04/19 08:45:05;;;;;;;3.08;1.30;;;13.10;99.90;;;;;;5091493;28;21118;-50
2023/04/19 08:47:35;;;;;;;2.75;1.27;;;13.40;99.90;;;;;;5094117;28;20051;-50
2023/04/19 08:50:05;;;;;;;6.32;1.55;;;13.90;99.90;;;;;;5092185;28;20046;-49
2023/04/19 08:52:36;;;;;;;4.88;1.30;;;13.80;99.90;;;;;;5092814;28;20074;-50
2023/04/19 08:55:06;;;;;;;3.05;1.20;;;13.90;99.90;;;;;;5091677;28;20886;-50
2023/04/19 08:57:34;;;;;;;3.88;1.33;;;13.70;99.90;;;;;;5092020;28;20067;-53
2023/04/19 09:00:04;;;;;;;3.25;1.60;;;13.70;99.90;;;;;;5090957;28;20053;-51
2023/04/19 09:02:46;;;;;;;4.28;1.67;;;13.70;99.90;;;;;;5091445;28;20075;-51
2023/04/19 09:05:17;;;;;;;8.25;1.60;;;13.60;99.90;;;;;;5091585;28;20035;-50
2023/04/19 09:07:44;;;;;;;2.65;1.20;;;13.40;99.90;;;;;;5090620;28;20044;-53
2023/04/19 09:10:20;;;;;;;3.45;1.58;;;13.30;99.90;;;;;;5091733;28;20823;-54
2023/04/19 09:13:02;;;;;;;2.72;1.50;;;13.00;99.90;;;;;;5090741;28;20047;-52
2023/04/19 09:15:39;;;;;;;4.75;1.55;;;13.00;99.90;;;;;;5091685;28;20598;-54
2023/04/19 09:18:08;;;;;;;4.03;1.27;;;13.20;99.90;;;;;;5093781;28;20040;-53
2023/04/19 09:20:42;;;;;;;3.33;1.40;;;13.60;99.90;;;;;;5090813;28;20040;-53
2023/04/19 09:23:12;;;;;;;5.82;1.23;;;14.00;99.90;;;;;;5092276;28;20035;-54
2023/04/19 09:25:56;;;;;;;3.00;1.50;;;14.60;99.90;;;;;;5090503;28;20077;-53
2023/04/19 09:28:23;;;;;;;5.68;1.70;;;14.80;99.90;;;;;;5092784;28;20038;-52
2023/04/19 09:30:49;;;;;;;5.65;1.60;;;15.00;99.90;;;;;;5090685;28;20099;-54
2023/04/19 09:33:33;;;;;;;3.20;1.55;;;15.10;99.90;;;;;;5092049;28;20044;-52
2023/04/19 09:36:00;;;;;;;3.05;1.50;;;14.60;99.90;;;;;;5090449;28;20043;-54
2023/04/19 09:38:26;;;;;;;6.90;1.60;;;14.00;99.90;;;;;;5072883;28;20040;-54
2023/04/19 09:40:52;;;;;;;6.50;1.58;;;13.80;99.90;;;;;;5091387;28;20705;-53
2023/04/19 09:43:26;;;;;;;3.28;1.20;;;13.60;99.90;;;;;;5092688;28;20054;-53
2023/04/19 09:45:52;;;;;;;2.50;1.30;;;13.40;99.90;;;;;;5090633;28;20040;-51
2023/04/19 09:48:18;;;;;;;4.85;1.60;;;13.40;99.90;;;;;;5075100;28;20373;-47
2023/04/19 09:50:52;;;;;;;2.70;1.48;;;13.20;99.90;;;;;;5072637;28;20044;-46
2023/04/19 09:53:19;;;;;;;3.80;1.35;;;13.10;99.90;;;;;;5091791;28;20038;-48
2023/04/19 09:55:48;;;;;;;2.75;1.48;;;13.30;99.90;;;;;;5091282;28;20075;-50
2023/04/19 09:58:15;;;;;;;6.57;1.60;;;13.50;99.90;;;;;;5093599;27;20051;-46
2023/04/19 10:00:43;;;;;;;5.20;1.77;;;13.40;99.90;;;;;;5095790;27;20769;-56
2023/04/19 10:03:09;;;;;;;4.53;1.13;;;13.60;99.90;;;;;;5096276;27;20036;-45
2023/04/19 10:05:40;;;;;;;2.65;1.30;;;13.50;99.90;;;;;;5093542;27;20054;-45
2023/04/19 10:08:11;;;;;;;5.18;1.45;;;13.60;99.90;;;;;;5095366;27;20052;-46
2023/04/19 10:10:39;;;;;;;4.70;1.37;;;13.90;99.90;;;;;;5093906;27;20158;-50
2023/04/19 10:13:22;;;;;;;3.75;1.33;;;13.80;99.90;;;;;;5093802;27;21209;-49
2023/04/19 10:15:47;;;;;;;4.95;1.20;;;13.70;99.90;;;;;;5093185;27;20079;-48
2023/04/19 10:18:14;;;;;;;6.03;1.48;;;14.10;99.90;;;;;;5096104;27;20184;-46
2023/04/19 10:20:49;;;;;;;3.83;1.00;;;14.80;99.90;;;;;;5093105;27;20128;-49
2023/04/19 10:23:15;;;;;;;12.63;2.75;;;14.00;99.90;;;;;;5094697;27;20039;-45
2023/04/19 10:25:46;;;;;;;4.45;1.02;;;14.00;99.90;;;;;;5074752;28;20305;-48
2023/04/19 10:28:12;;;;;;;2.83;1.23;;;14.20;99.90;;;;;;5093816;27;20040;-46
2023/04/19 10:31:02;;;;;;;1.98;1.00;;;13.90;99.90;;;;;;5095341;27;20928;-46
2023/04/19 10:33:30;;;;;;;3.08;0.95;;;14.10;99.90;;;;;;5093764;27;20568;-50
2023/04/19 10:36:00;;;;;;;1.70;0.63;;;13.90;99.90;;;;;;5094464;27;20046;-48
2023/04/19 10:38:55;;;;;;;2.50;1.00;;;14.10;99.90;;;;;;5094380;27;20136;-47
2023/04/19 10:41:21;;;;;;;2.40;1.05;;;14.30;99.90;;;;;;5062367;27;20189;-47
2023/04/19 10:43:56;;;;;;;2.88;1.00;;;14.00;99.90;;;;;;5095083;27;20075;-47
2023/04/19 10:46:27;;;;;;;3.15;1.05;;;13.90;99.90;;;;;;5093945;27;20098;-46
2023/04/19 10:49:00;;;;;;;3.95;1.10;;;13.80;99.90;;;;;;5095805;27;20039;-46
2023/04/19 10:51:28;;;;;;;2.10;0.90;;;13.90;99.90;;;;;;5093443;27;20042;-48
2023/04/19 10:54:04;;;;;;;5.78;0.98;;;14.10;99.90;;;;;;5095605;27;21257;-48
2023/04/19 10:56:33;;;;;;;1.50;0.82;;;14.40;99.90;;;;;;5092838;27;20379;-46
2023/04/19 10:59:06;;;;;;;5.93;0.95;;;14.30;99.90;;;;;;5095202;27;20134;-46
2023/04/19 11:01:46;;;;;;;5.05;1.40;;;14.50;99.90;;;;;;5092521;27;20054;-45
2023/04/19 11:04:21;;;;;;;2.47;1.15;;;14.50;99.90;;;;;;5094244;27;20079;-46
2023/04/19 11:06:52;;;;;;;3.15;1.00;;;14.70;99.90;;;;;;5095036;27;20054;-45
2023/04/19 11:09:33;;;;;;;6.22;1.17;;;14.50;99.90;;;;;;5095548;28;20138;-50
2023/04/19 11:12:09;;;;;;;6.32;1.10;;;14.50;99.90;;;;;;5094283;27;20195;-46
2023/04/19 11:14:58;;;;;;;2.95;0.80;;;14.60;99.90;;;;;;5094024;27;20062;-45
2023/04/19 11:17:27;;;;;;;3.75;0.80;;;14.50;99.90;;;;;;5094482;27;20496;-45
2023/04/19 11:20:01;;;;;;;4.00;0.90;;;14.10;99.90;;;;;;5094175;27;20039;-46
2023/04/19 11:22:31;;;;;;;7.65;0.73;;;14.20;99.90;;;;;;5094500;27;20540;-48
2023/04/19 11:25:13;;;;;;;2.25;0.95;;;14.10;99.90;;;;;;5094139;27;20043;-47
2023/04/19 11:27:40;;;;;;;2.50;0.95;;;14.10;99.90;;;;;;5093715;27;20071;-46
2023/04/19 11:30:11;;;;;;;2.28;0.90;;;14.10;99.90;;;;;;5092516;27;20051;-46
2023/04/19 11:32:44;;;;;;;2.90;1.00;;;14.00;99.90;;;;;;5093277;27;20085;-47
2023/04/19 11:35:10;;;;;;;2.55;0.95;;;14.20;99.90;;;;;;5091890;27;20046;-46
2023/04/19 11:37:37;;;;;;;5.10;1.45;;;14.20;99.90;;;;;;5093876;27;20090;-47
2023/04/19 11:40:05;;;;;;;3.53;1.30;;;14.30;99.90;;;;;;5092956;27;20062;-45
2023/04/19 11:42:31;;;;;;;3.78;1.48;;;14.40;99.90;;;;;;5092682;27;20070;-46
2023/04/19 11:44:58;;;;;;;4.65;1.50;;;14.50;99.90;;;;;;5091623;27;20038;-48
2023/04/19 11:47:25;;;;;;;3.17;1.08;;;14.40;99.90;;;;;;5092253;27;20571;-46
2023/04/19 11:49:53;;;;;;;3.17;0.93;;;14.50;99.90;;;;;;5094419;27;20049;-49
2023/04/19 11:52:24;;;;;;;2.75;1.02;;;14.50;99.90;;;;;;5091605;27;20048;-47
2023/04/19 11:54:51;;;;;;;1.60;0.98;;;12.20;99.90;;;;;;5092836;27;20086;-45
2023/04/19 11:57:29;;;;;;;2.15;1.17;;;14.40;99.90;;;;;;5091521;27;20467;-45
2023/04/19 12:00:10;;;;;;;4.07;1.02;;;13.90;99.90;;;;;;5091601;27;20269;-48
2023/04/19 12:02:41;;;;;;;3.03;1.15;;;14.00;99.90;;;;;;5091331;27;20047;-48
2023/04/19 12:05:14;;;;;;;5.80;1.45;;;14.10;99.90;;;;;;5090169;27;20035;-45
2023/04/19 12:08:03;;;;;;;2.88;1.30;;;14.00;99.90;;;;;;5090601;27;20129;-46
2023/04/19 12:10:30;;;;;;;9.18;1.50;;;14.00;99.90;;;;;;5071071;28;20075;-50
2023/04/19 12:12:56;;;;;;;4.30;1.50;;;14.10;99.90;;;;;;5090647;27;20049;-47
2023/04/19 12:15:22;;;;;;;4.18;1.48;;;14.00;99.90;;;;;;5091212;28;20036;-46
2023/04/19 12:18:00;;;;;;;3.50;0.98;;;14.00;99.90;;;;;;5075292;28;20047;-48
2023/04/19 12:20:30;;;;;;;4.60;1.90;;;13.70;99.90;;;;;;5091094;27;20878;-50
2023/04/19 12:22:56;;;;;;;5.20;1.55;;;13.90;99.90;;;;;;5073604;28;21374;-49
2023/04/19 12:25:27;;;;;;;6.78;1.98;;;13.90;99.90;;;;;;5073646;28;20499;-50
2023/04/19 12:27:53;;;;;;;2.70;1.38;;;13.80;99.90;;;;;;5093326;28;20315;-51
2023/04/19 12:30:19;;;;;;;4.43;1.48;;;14.00;99.90;;;;;;5053535;28;20524;-49
2023/04/19 12:32:44;;;;;;;8.65;2.58;;;14.10;99.90;;;;;;5092365;28;20044;-48
2023/04/19 12:35:10;;;;;;;5.28;2.08;;;14.00;99.90;;;;;;5092975;27;20122;-49
2023/04/19 12:37:36;;;;;;;7.47;2.78;;;14.00;99.90;;;;;;5092165;28;20082;-49
2023/04/19 12:40:02;;;;;;;9.95;2.80;;;13.90;99.90;;;;;;5091284;27;20044;-51
2023/04/19 12:42:28;;;;;;;6.05;2.58;;;13.90;99.90;;;;;;5091494;27;20162;-51
2023/04/19 12:44:54;;;;;;;5.60;2.42;;;13.90;99.90;;;;;;5092507;27;20130;-47
2023/04/19 12:47:20;;;;;;;8.48;3.15;;;13.70;99.90;;;;;;5091681;27;20035;-50
2023/04/19 12:49:45;;;;;;;7.65;2.95;;;13.80;99.90;;;;;;5092208;28;20089;-50
2023/04/19 12:52:11;;;;;;;6.72;2.75;;;13.80;99.90;;;;;;5091484;28;20039;-47
2023/04/19 12:54:37;;;;;;;7.57;3.10;;;13.90;99.90;;;;;;5090761;28;20039;-48
2023/04/19 12:57:02;;;;;;;7.07;2.65;;;13.70;99.90;;;;;;5090554;28;20038;-49